sensor_id;sensor_type;location;lat;lon;timestamp;pressure;altitude;pressure_sealevel;temperature;humidity
33859;BME280;20156;47.486;12.074;2023-02-28T00:00:20;95917.91;;;-1.46;100.00
33859;BME280;20156;47.486;12.074;2023-02-28T00:02:45;95917.09;;;-1.36;100.00
33859;BME280;20156;47.486;12.074;2023-02-28T00:05:13;95907.50;;;-1.32;100.00
33859;BME280;20156;47.486;12.074;2023-02-28T00:07:39;95910.03;;;-1.32;100.00
33859;BME280;20156;47.486;12.074;2023-02-28T00:10:06;95913.38;;;-1.43;100.00
33859;BME280;20156;47.486;12.074;2023-02-28T00:12:33;95910.16;;;-1.34;100.00
33859;BME280;20156;47.486;12.074;2023-02-28T00:14:59;95902.84;;;-1.27;100.00
33859;BME280;20156;47.486;12.074;2023-02-28T00:17:25;95907.25;;;-1.29;100.00
33859;BME280;20156;47.486;12.074;2023-02-28T00:19:51;95905.38;;;-1.38;100.00
33859;BME280;20156;47.486;12.074;2023-02-28T00:22:19;95907.81;;;-1.48;100.00
33859;BME280;20156;47.486;12.074;2023-02-28T00:24:45;95899.72;;;-1.31;100.00
33859;BME280;20156;47.486;12.074;2023-02-28T00:27:10;95905.50;;;-1.40;100.00
33859;BME280;20156;47.486;12.074;2023-02-28T00:29:36;95899.34;;;-1.37;100.00
33859;BME280;20156;47.486;12.074;2023-02-28T00:32:02;95897.41;;;-1.34;100.00
33859;BME280;20156;47.486;12.074;2023-02-28T00:34:27;95888.31;;;-1.49;100.00
33859;BME280;20156;47.486;12.074;2023-02-28T00:36:53;95888.91;;;-1.45;100.00
33859;BME280;20156;47.486;12.074;2023-02-28T00:39:20;95887.63;;;-1.51;100.00
33859;BME280;20156;47.486;12.074;2023-02-28T00:41:46;95890.25;;;-1.64;100.00
33859;BME280;20156;47.486;12.074;2023-02-28T00:44:11;95886.09;;;-1.65;100.00
33859;BME280;20156;47.486;12.074;2023-02-28T00:46:37;95884.34;;;-1.64;100.00
33859;BME280;20156;47.486;12.074;2023-02-28T00:49:02;95878.22;;;-1.62;100.00
33859;BME280;20156;47.486;12.074;2023-02-28T00:51:28;95877.41;;;-1.62;100.00
33859;BME280;20156;47.486;12.074;2023-02-28T00:53:54;95869.84;;;-1.64;100.00
33859;BME280;20156;47.486;12.074;2023-02-28T00:56:19;95866.28;;;-1.61;100.00
33859;BME280;20156;47.486;12.074;2023-02-28T00:58:45;95860.94;;;-1.58;100.00
33859;BME280;20156;47.486;12.074;2023-02-28T01:01:11;95861.16;;;-1.61;100.00
33859;BME280;20156;47.486;12.074;2023-02-28T01:03:36;95857.91;;;-1.63;100.00
33859;BME280;20156;47.486;12.074;2023-02-28T01:06:02;95854.47;;;-1.51;100.00
33859;BME280;20156;47.486;12.074;2023-02-28T01:08:27;95841.72;;;-1.51;100.00
33859;BME280;20156;47.486;12.074;2023-02-28T01:10:52;95837.31;;;-1.49;100.00
33859;BME280;20156;47.486;12.074;2023-02-28T01:13:19;95830.25;;;-1.45;100.00
33859;BME280;20156;47.486;12.074;2023-02-28T01:15:53;95845.53;;;-1.57;100.00
33859;BME280;20156;47.486;12.074;2023-02-28T01:18:21;95838.69;;;-1.67;100.00
33859;BME280;20156;47.486;12.074;2023-02-28T01:20:47;95840.19;;;-1.65;100.00
33859;BME280;20156;47.486;12.074;2023-02-28T01:23:13;95840.75;;;-1.61;100.00
33859;BME280;20156;47.486;12.074;2023-02-28T01:25:38;95828.03;;;-1.61;100.00
33859;BME280;20156;47.486;12.074;2023-02-28T01:28:04;95837.88;;;-1.57;100.00
33859;BME280;20156;47.486;12.074;2023-02-28T01:30:31;95828.38;;;-1.55;100.00
33859;BME280;20156;47.486;12.074;2023-02-28T01:32:56;95834.63;;;-1.59;100.00
33859;BME280;20156;47.486;12.074;2023-02-28T01:35:21;95838.53;;;-1.77;100.00
33859;BME280;20156;47.486;12.074;2023-02-28T01:37:47;95838.56;;;-1.66;100.00
33859;BME280;20156;47.486;12.074;2023-02-28T01:40:13;95834.34;;;-1.78;100.00
33859;BME280;20156;47.486;12.074;2023-02-28T01:42:38;95833.19;;;-1.74;100.00
33859;BME280;20156;47.486;12.074;2023-02-28T01:45:17;95829.06;;;-1.64;100.00
33859;BME280;20156;47.486;12.074;2023-02-28T01:47:44;95829.53;;;-1.59;100.00
33859;BME280;20156;47.486;12.074;2023-02-28T01:50:14;95830.31;;;-1.69;100.00
33859;BME280;20156;47.486;12.074;2023-02-28T01:52:42;95829.19;;;-1.65;100.00
33859;BME280;20156;47.486;12.074;2023-02-28T01:55:10;95821.34;;;-1.86;100.00
33859;BME280;20156;47.486;12.074;2023-02-28T01:57:44;95814.78;;;-1.77;100.00
33859;BME280;20156;47.486;12.074;2023-02-28T02:00:14;95810.84;;;-1.82;100.00
33859;BME280;20156;47.486;12.074;2023-02-28T02:02:45;95809.69;;;-1.77;100.00
33859;BME280;20156;47.486;12.074;2023-02-28T02:05:17;95793.44;;;-1.76;100.00
33859;BME280;20156;47.486;12.074;2023-02-28T02:07:47;95800.75;;;-1.72;100.00
33859;BME280;20156;47.486;12.074;2023-02-28T02:10:19;95808.41;;;-1.72;100.00
33859;BME280;20156;47.486;12.074;2023-02-28T02:15:32;95816.16;;;-1.73;100.00
33859;BME280;20156;47.486;12.074;2023-02-28T02:18:09;95815.59;;;-1.77;100.00
33859;BME280;20156;47.486;12.074;2023-02-28T02:23:30;95805.97;;;-1.73;100.00
33859;BME280;20156;47.486;12.074;2023-02-28T02:40:03;95767.25;;;-1.78;100.00
33859;BME280;20156;47.486;12.074;2023-02-28T02:45:12;95739.22;;;-1.78;100.00
33859;BME280;20156;47.486;12.074;2023-02-28T02:47:39;95731.91;;;-1.94;100.00
33859;BME280;20156;47.486;12.074;2023-02-28T02:50:08;95723.22;;;-1.92;100.00
33859;BME280;20156;47.486;12.074;2023-02-28T02:52:42;95714.53;;;-1.89;100.00
33859;BME280;20156;47.486;12.074;2023-02-28T02:55:10;95710.13;;;-1.98;100.00
33859;BME280;20156;47.486;12.074;2023-02-28T02:57:43;95698.31;;;-1.99;100.00
33859;BME280;20156;47.486;12.074;2023-02-28T03:00:12;95705.34;;;-2.14;100.00
33859;BME280;20156;47.486;12.074;2023-02-28T03:02:40;95677.22;;;-2.13;100.00
33859;BME280;20156;47.486;12.074;2023-02-28T03:05:12;95668.75;;;-2.13;100.00
33859;BME280;20156;47.486;12.074;2023-02-28T03:07:40;95684.28;;;-2.16;100.00
33859;BME280;20156;47.486;12.074;2023-02-28T03:10:30;95682.88;;;-2.20;100.00
33859;BME280;20156;47.486;12.074;2023-02-28T03:23:51;95668.97;;;-2.27;100.00
33859;BME280;20156;47.486;12.074;2023-02-28T03:26:26;95674.88;;;-2.27;100.00
33859;BME280;20156;47.486;12.074;2023-02-28T03:29:18;95669.78;;;-2.27;100.00
33859;BME280;20156;47.486;12.074;2023-02-28T03:31:59;95661.56;;;-2.30;100.00
33859;BME280;20156;47.486;12.074;2023-02-28T03:34:32;95665.84;;;-2.31;100.00
33859;BME280;20156;47.486;12.074;2023-02-28T03:37:10;95659.81;;;-2.30;100.00
33859;BME280;20156;47.486;12.074;2023-02-28T03:39:43;95652.84;;;-2.39;100.00
33859;BME280;20156;47.486;12.074;2023-02-28T03:42:15;95656.78;;;-2.46;100.00
33859;BME280;20156;47.486;12.074;2023-02-28T03:44:56;95647.19;;;-2.43;100.00
33859;BME280;20156;47.486;12.074;2023-02-28T03:47:33;95652.59;;;-2.58;100.00
33859;BME280;20156;47.486;12.074;2023-02-28T03:50:07;95650.72;;;-2.67;100.00
33859;BME280;20156;47.486;12.074;2023-02-28T03:52:45;95647.94;;;-2.64;100.00
33859;BME280;20156;47.486;12.074;2023-02-28T03:55:14;95652.53;;;-2.69;100.00
33859;BME280;20156;47.486;12.074;2023-02-28T03:57:57;95643.09;;;-2.67;100.00
33859;BME280;20156;47.486;12.074;2023-02-28T04:00:40;95653.88;;;-2.88;100.00
33859;BME280;20156;47.486;12.074;2023-02-28T04:03:08;95645.31;;;-2.87;100.00
33859;BME280;20156;47.486;12.074;2023-02-28T04:05:48;95636.44;;;-2.81;100.00
33859;BME280;20156;47.486;12.074;2023-02-28T04:08:15;95641.53;;;-2.81;100.00
33859;BME280;20156;47.486;12.074;2023-02-28T04:10:41;95624.53;;;-2.81;100.00
33859;BME280;20156;47.486;12.074;2023-02-28T04:13:10;95629.34;;;-2.89;100.00
33859;BME280;20156;47.486;12.074;2023-02-28T04:15:35;95633.84;;;-2.92;100.00
33859;BME280;20156;47.486;12.074;2023-02-28T04:18:02;95631.44;;;-2.94;100.00
33859;BME280;20156;47.486;12.074;2023-02-28T04:20:27;95627.16;;;-2.93;100.00
33859;BME280;20156;47.486;12.074;2023-02-28T04:22:53;95627.59;;;-2.99;100.00
33859;BME280;20156;47.486;12.074;2023-02-28T04:25:18;95638.88;;;-3.15;100.00
33859;BME280;20156;47.486;12.074;2023-02-28T04:27:43;95629.72;;;-3.17;100.00
33859;BME280;20156;47.486;12.074;2023-02-28T04:30:10;95630.66;;;-3.18;100.00
33859;BME280;20156;47.486;12.074;2023-02-28T04:32:36;95630.84;;;-3.21;100.00
33859;BME280;20156;47.486;12.074;2023-02-28T04:35:01;95619.38;;;-3.27;100.00
33859;BME280;20156;47.486;12.074;2023-02-28T04:37:27;95611.97;;;-3.30;100.00
33859;BME280;20156;47.486;12.074;2023-02-28T04:39:54;95607.72;;;-3.29;100.00
33859;BME280;20156;47.486;12.074;2023-02-28T04:42:20;95609.47;;;-3.43;100.00
33859;BME280;20156;47.486;12.074;2023-02-28T04:44:45;95607.88;;;-3.44;100.00
33859;BME280;20156;47.486;12.074;2023-02-28T04:47:12;95603.69;;;-3.45;100.00
33859;BME280;20156;47.486;12.074;2023-02-28T04:49:37;95581.75;;;-3.46;100.00
33859;BME280;20156;47.486;12.074;2023-02-28T04:52:03;95586.59;;;-3.43;100.00
33859;BME280;20156;47.486;12.074;2023-02-28T04:54:29;95585.31;;;-3.48;100.00
33859;BME280;20156;47.486;12.074;2023-02-28T04:56:55;95579.44;;;-3.38;100.00
33859;BME280;20156;47.486;12.074;2023-02-28T04:59:20;95582.97;;;-3.27;100.00
33859;BME280;20156;47.486;12.074;2023-02-28T05:01:47;95591.06;;;-3.34;100.00
33859;BME280;20156;47.486;12.074;2023-02-28T05:04:13;95597.03;;;-3.58;100.00
33859;BME280;20156;47.486;12.074;2023-02-28T05:06:38;95606.06;;;-3.78;100.00
33859;BME280;20156;47.486;12.074;2023-02-28T05:09:04;95584.19;;;-3.68;100.00
33859;BME280;20156;47.486;12.074;2023-02-28T05:11:33;95569.31;;;-3.61;100.00
33859;BME280;20156;47.486;12.074;2023-02-28T05:14:04;95572.19;;;-3.66;100.00
33859;BME280;20156;47.486;12.074;2023-02-28T05:16:30;95581.63;;;-3.68;100.00
33859;BME280;20156;47.486;12.074;2023-02-28T05:18:56;95577.03;;;-3.63;100.00
33859;BME280;20156;47.486;12.074;2023-02-28T05:21:33;95575.91;;;-3.59;100.00
33859;BME280;20156;47.486;12.074;2023-02-28T05:24:02;95584.44;;;-3.60;100.00
33859;BME280;20156;47.486;12.074;2023-02-28T05:26:28;95603.28;;;-3.75;100.00
33859;BME280;20156;47.486;12.074;2023-02-28T05:28:54;95597.06;;;-3.71;100.00
33859;BME280;20156;47.486;12.074;2023-02-28T05:31:20;95610.09;;;-3.76;100.00
33859;BME280;20156;47.486;12.074;2023-02-28T05:33:45;95603.88;;;-3.72;100.00
33859;BME280;20156;47.486;12.074;2023-02-28T05:36:11;95612.75;;;-3.77;100.00
33859;BME280;20156;47.486;12.074;2023-02-28T05:38:36;95610.94;;;-3.88;100.00
33859;BME280;20156;47.486;12.074;2023-02-28T05:41:09;95611.25;;;-3.92;100.00
33859;BME280;20156;47.486;12.074;2023-02-28T05:43:35;95611.97;;;-3.90;100.00
33859;BME280;20156;47.486;12.074;2023-02-28T05:46:03;95604.94;;;-3.87;100.00
33859;BME280;20156;47.486;12.074;2023-02-28T05:48:28;95614.00;;;-3.83;100.00
33859;BME280;20156;47.486;12.074;2023-02-28T05:50:54;95611.03;;;-3.77;100.00
33859;BME280;20156;47.486;12.074;2023-02-28T05:53:20;95611.25;;;-3.80;100.00
33859;BME280;20156;47.486;12.074;2023-02-28T05:55:45;95626.28;;;-3.89;100.00
33859;BME280;20156;47.486;12.074;2023-02-28T05:58:11;95634.25;;;-4.07;100.00
33859;BME280;20156;47.486;12.074;2023-02-28T06:00:36;95623.69;;;-4.01;100.00
33859;BME280;20156;47.486;12.074;2023-02-28T06:03:02;95607.91;;;-3.93;100.00
33859;BME280;20156;47.486;12.074;2023-02-28T06:05:27;95608.13;;;-3.96;100.00
33859;BME280;20156;47.486;12.074;2023-02-28T06:07:53;95609.22;;;-3.87;100.00
33859;BME280;20156;47.486;12.074;2023-02-28T06:10:18;95612.50;;;-3.98;100.00
33859;BME280;20156;47.486;12.074;2023-02-28T06:12:44;95614.50;;;-3.90;100.00
33859;BME280;20156;47.486;12.074;2023-02-28T06:15:14;95607.31;;;-3.84;100.00
33859;BME280;20156;47.486;12.074;2023-02-28T06:17:40;95609.84;;;-3.84;100.00
33859;BME280;20156;47.486;12.074;2023-02-28T06:20:07;95599.94;;;-3.76;100.00
33859;BME280;20156;47.486;12.074;2023-02-28T06:22:34;95599.44;;;-3.68;100.00
33859;BME280;20156;47.486;12.074;2023-02-28T06:25:00;95597.97;;;-3.59;100.00
33859;BME280;20156;47.486;12.074;2023-02-28T06:27:26;95598.06;;;-3.61;100.00
33859;BME280;20156;47.486;12.074;2023-02-28T06:29:54;95603.59;;;-3.67;100.00
33859;BME280;20156;47.486;12.074;2023-02-28T06:32:20;95623.66;;;-3.88;100.00
33859;BME280;20156;47.486;12.074;2023-02-28T06:34:45;95631.50;;;-4.04;100.00
33859;BME280;20156;47.486;12.074;2023-02-28T06:37:10;95620.72;;;-3.95;100.00
33859;BME280;20156;47.486;12.074;2023-02-28T06:39:36;95619.19;;;-3.84;100.00
33859;BME280;20156;47.486;12.074;2023-02-28T06:42:02;95608.09;;;-3.83;100.00
33859;BME280;20156;47.486;12.074;2023-02-28T06:44:27;95612.66;;;-3.76;100.00
33859;BME280;20156;47.486;12.074;2023-02-28T06:47:01;95609.97;;;-3.61;100.00
33859;BME280;20156;47.486;12.074;2023-02-28T06:49:35;95619.81;;;-3.57;100.00
33859;BME280;20156;47.486;12.074;2023-02-28T06:52:02;95633.03;;;-3.52;100.00
33859;BME280;20156;47.486;12.074;2023-02-28T06:54:27;95647.53;;;-3.54;100.00
33859;BME280;20156;47.486;12.074;2023-02-28T06:56:53;95655.16;;;-3.54;100.00
33859;BME280;20156;47.486;12.074;2023-02-28T06:59:19;95660.16;;;-3.52;100.00
33859;BME280;20156;47.486;12.074;2023-02-28T07:01:45;95659.25;;;-3.51;100.00
33859;BME280;20156;47.486;12.074;2023-02-28T07:04:11;95664.50;;;-3.42;100.00
33859;BME280;20156;47.486;12.074;2023-02-28T07:06:38;95674.91;;;-3.57;100.00
33859;BME280;20156;47.486;12.074;2023-02-28T07:09:04;95669.19;;;-3.48;100.00
33859;BME280;20156;47.486;12.074;2023-02-28T07:11:30;95674.59;;;-3.53;100.00
33859;BME280;20156;47.486;12.074;2023-02-28T07:13:56;95674.28;;;-3.48;100.00
33859;BME280;20156;47.486;12.074;2023-02-28T07:16:22;95669.47;;;-3.40;100.00
33859;BME280;20156;47.486;12.074;2023-02-28T07:18:48;95688.47;;;-3.33;100.00
33859;BME280;20156;47.486;12.074;2023-02-28T07:21:14;95703.50;;;-3.30;100.00
33859;BME280;20156;47.486;12.074;2023-02-28T07:23:40;95723.22;;;-3.21;100.00
33859;BME280;20156;47.486;12.074;2023-02-28T07:26:08;95720.56;;;-3.19;100.00
33859;BME280;20156;47.486;12.074;2023-02-28T07:28:36;95729.91;;;-3.20;100.00
33859;BME280;20156;47.486;12.074;2023-02-28T07:31:06;95738.97;;;-3.16;100.00
33859;BME280;20156;47.486;12.074;2023-02-28T07:33:31;95734.38;;;-3.11;100.00
33859;BME280;20156;47.486;12.074;2023-02-28T07:36:06;95746.06;;;-3.08;100.00
33859;BME280;20156;47.486;12.074;2023-02-28T07:38:36;95750.22;;;-3.07;100.00
33859;BME280;20156;47.486;12.074;2023-02-28T07:41:03;95750.53;;;-2.99;100.00
33859;BME280;20156;47.486;12.074;2023-02-28T07:43:32;95748.69;;;-2.97;100.00
33859;BME280;20156;47.486;12.074;2023-02-28T07:46:05;95739.06;;;-2.81;100.00
33859;BME280;20156;47.486;12.074;2023-02-28T07:48:32;95732.88;;;-2.65;100.00
33859;BME280;20156;47.486;12.074;2023-02-28T07:50:58;95735.72;;;-2.46;100.00
33859;BME280;20156;47.486;12.074;2023-02-28T07:53:24;95744.91;;;-2.32;100.00
33859;BME280;20156;47.486;12.074;2023-02-28T07:55:50;95768.66;;;-2.21;100.00
33859;BME280;20156;47.486;12.074;2023-02-28T07:58:15;95779.94;;;-2.12;100.00
33859;BME280;20156;47.486;12.074;2023-02-28T08:00:42;95802.53;;;-2.07;100.00
33859;BME280;20156;47.486;12.074;2023-02-28T08:03:13;95814.16;;;-1.92;100.00
33859;BME280;20156;47.486;12.074;2023-02-28T08:05:40;95819.28;;;-1.70;100.00
33859;BME280;20156;47.486;12.074;2023-02-28T08:08:06;95828.72;;;-1.59;100.00
33859;BME280;20156;47.486;12.074;2023-02-28T08:10:32;95831.59;;;-1.53;100.00
33859;BME280;20156;47.486;12.074;2023-02-28T08:12:57;95837.94;;;-1.69;100.00
33859;BME280;20156;47.486;12.074;2023-02-28T08:15:23;95847.41;;;-1.47;100.00
33859;BME280;20156;47.486;12.074;2023-02-28T08:17:48;95849.84;;;-1.46;100.00
33859;BME280;20156;47.486;12.074;2023-02-28T08:20:14;95844.16;;;-1.38;100.00
33859;BME280;20156;47.486;12.074;2023-02-28T08:22:39;95833.84;;;-1.37;100.00
33859;BME280;20156;47.486;12.074;2023-02-28T08:25:05;95847.25;;;-1.57;100.00
33859;BME280;20156;47.486;12.074;2023-02-28T08:27:32;95849.47;;;-1.64;100.00
33859;BME280;20156;47.486;12.074;2023-02-28T08:29:57;95855.13;;;-1.60;100.00
33859;BME280;20156;47.486;12.074;2023-02-28T08:32:23;95855.63;;;-1.44;100.00
33859;BME280;20156;47.486;12.074;2023-02-28T08:34:48;95860.50;;;-1.41;100.00
33859;BME280;20156;47.486;12.074;2023-02-28T08:37:14;95852.63;;;-1.38;100.00
33859;BME280;20156;47.486;12.074;2023-02-28T08:39:39;95848.94;;;-1.00;100.00
33859;BME280;20156;47.486;12.074;2023-02-28T08:42:04;95853.91;;;-0.76;100.00
33859;BME280;20156;47.486;12.074;2023-02-28T08:44:30;95869.44;;;-0.46;100.00
33859;BME280;20156;47.486;12.074;2023-02-28T08:46:55;95911.19;;;-0.24;100.00
33859;BME280;20156;47.486;12.074;2023-02-28T08:49:21;95935.56;;;-0.20;100.00
33859;BME280;20156;47.486;12.074;2023-02-28T08:51:46;95940.94;;;-0.35;100.00
33859;BME280;20156;47.486;12.074;2023-02-28T08:54:12;95946.47;;;-0.18;100.00
33859;BME280;20156;47.486;12.074;2023-02-28T08:56:38;95954.25;;;-0.09;100.00
33859;BME280;20156;47.486;12.074;2023-02-28T08:59:03;95962.50;;;-0.05;100.00
33859;BME280;20156;47.486;12.074;2023-02-28T09:01:29;95962.25;;;0.09;100.00
33859;BME280;20156;47.486;12.074;2023-02-28T09:03:57;95973.16;;;0.11;100.00
33859;BME280;20156;47.486;12.074;2023-02-28T09:06:24;95974.00;;;0.44;100.00
33859;BME280;20156;47.486;12.074;2023-02-28T09:08:50;95981.69;;;0.65;100.00
33859;BME280;20156;47.486;12.074;2023-02-28T09:11:17;96000.81;;;0.81;100.00
33859;BME280;20156;47.486;12.074;2023-02-28T09:13:43;96016.56;;;0.98;100.00
33859;BME280;20156;47.486;12.074;2023-02-28T09:16:12;96019.22;;;1.07;100.00
33859;BME280;20156;47.486;12.074;2023-02-28T09:18:38;96022.63;;;1.17;100.00
33859;BME280;20156;47.486;12.074;2023-02-28T09:21:09;96028.13;;;1.55;100.00
33859;BME280;20156;47.486;12.074;2023-02-28T09:23:36;96036.78;;;1.63;100.00
33859;BME280;20156;47.486;12.074;2023-02-28T09:26:03;96039.09;;;1.66;100.00
33859;BME280;20156;47.486;12.074;2023-02-28T09:28:29;96031.06;;;1.80;100.00
33859;BME280;20156;47.486;12.074;2023-02-28T09:30:54;96039.63;;;1.91;100.00
33859;BME280;20156;47.486;12.074;2023-02-28T09:33:21;96044.91;;;1.99;100.00
33859;BME280;20156;47.486;12.074;2023-02-28T09:35:51;96044.72;;;1.81;100.00
33859;BME280;20156;47.486;12.074;2023-02-28T09:38:22;96042.69;;;1.85;100.00
33859;BME280;20156;47.486;12.074;2023-02-28T09:41:11;96043.34;;;2.07;100.00
33859;BME280;20156;47.486;12.074;2023-02-28T09:43:41;96041.56;;;2.67;100.00
33859;BME280;20156;47.486;12.074;2023-02-28T09:48:53;96037.38;;;2.76;100.00
33859;BME280;20156;47.486;12.074;2023-02-28T09:51:33;96045.66;;;2.89;100.00
33859;BME280;20156;47.486;12.074;2023-02-28T09:54:01;96043.88;;;2.80;100.00
33859;BME280;20156;47.486;12.074;2023-02-28T09:56:36;96045.91;;;2.96;100.00
33859;BME280;20156;47.486;12.074;2023-02-28T09:59:17;96042.66;;;2.94;100.00
33859;BME280;20156;47.486;12.074;2023-02-28T10:04:51;96044.94;;;3.26;100.00
33859;BME280;20156;47.486;12.074;2023-02-28T10:07:31;96037.78;;;3.10;100.00
33859;BME280;20156;47.486;12.074;2023-02-28T10:10:06;96031.84;;;3.66;100.00
33859;BME280;20156;47.486;12.074;2023-02-28T10:12:41;96019.56;;;3.60;100.00
33859;BME280;20156;47.486;12.074;2023-02-28T10:15:14;96014.78;;;3.75;100.00
33859;BME280;20156;47.486;12.074;2023-02-28T10:17:44;96016.66;;;4.10;100.00
33859;BME280;20156;47.486;12.074;2023-02-28T10:20:11;96018.84;;;3.68;100.00
33859;BME280;20156;47.486;12.074;2023-02-28T10:22:44;96026.84;;;3.74;100.00
33859;BME280;20156;47.486;12.074;2023-02-28T10:25:21;96019.75;;;3.86;100.00
33859;BME280;20156;47.486;12.074;2023-02-28T10:27:47;96013.72;;;4.05;100.00
33859;BME280;20156;47.486;12.074;2023-02-28T10:30:13;96011.84;;;3.97;100.00
33859;BME280;20156;47.486;12.074;2023-02-28T10:32:49;96025.88;;;4.40;100.00
33859;BME280;20156;47.486;12.074;2023-02-28T10:35:24;96018.34;;;4.29;100.00
33859;BME280;20156;47.486;12.074;2023-02-28T10:37:54;96018.63;;;4.26;100.00
33859;BME280;20156;47.486;12.074;2023-02-28T10:45:22;96025.09;;;4.30;100.00
33859;BME280;20156;47.486;12.074;2023-02-28T10:47:59;96015.00;;;4.64;100.00
33859;BME280;20156;47.486;12.074;2023-02-28T10:53:32;96021.91;;;4.81;100.00
33859;BME280;20156;47.486;12.074;2023-02-28T10:56:01;95992.91;;;4.79;100.00
33859;BME280;20156;47.486;12.074;2023-02-28T11:00:54;95998.72;;;4.63;100.00
33859;BME280;20156;47.486;12.074;2023-02-28T11:03:31;95988.78;;;4.68;100.00
33859;BME280;20156;47.486;12.074;2023-02-28T11:05:58;95992.31;;;4.67;100.00
33859;BME280;20156;47.486;12.074;2023-02-28T11:08:23;96001.88;;;4.39;100.00
33859;BME280;20156;47.486;12.074;2023-02-28T11:11:02;95996.16;;;4.18;100.00
33859;BME280;20156;47.486;12.074;2023-02-28T11:13:34;96001.03;;;4.21;100.00
33859;BME280;20156;47.486;12.074;2023-02-28T11:16:04;95993.03;;;3.59;100.00
33859;BME280;20156;47.486;12.074;2023-02-28T11:18:47;96012.13;;;2.91;100.00
33859;BME280;20156;47.486;12.074;2023-02-28T11:21:31;96019.66;;;3.12;100.00
33859;BME280;20156;47.486;12.074;2023-02-28T11:26:55;96024.72;;;3.50;100.00
33859;BME280;20156;47.486;12.074;2023-02-28T11:29:46;96013.59;;;2.74;100.00
33859;BME280;20156;47.486;12.074;2023-02-28T11:32:29;96028.31;;;3.11;100.00
33859;BME280;20156;47.486;12.074;2023-02-28T11:37:36;96022.66;;;3.07;100.00
33859;BME280;20156;47.486;12.074;2023-02-28T11:40:08;96013.59;;;2.84;100.00
33859;BME280;20156;47.486;12.074;2023-02-28T11:48:20;96000.16;;;3.19;100.00
33859;BME280;20156;47.486;12.074;2023-02-28T11:56:40;95958.97;;;3.48;100.00
33859;BME280;20156;47.486;12.074;2023-02-28T12:02:27;95960.53;;;4.41;100.00
33859;BME280;20156;47.486;12.074;2023-02-28T12:11:03;95960.84;;;3.55;100.00
33859;BME280;20156;47.486;12.074;2023-02-28T12:25:10;95969.59;;;3.62;100.00
33859;BME280;20156;47.486;12.074;2023-02-28T12:27:46;95974.03;;;3.33;100.00
33859;BME280;20156;47.486;12.074;2023-02-28T12:30:31;95985.16;;;3.24;100.00
33859;BME280;20156;47.486;12.074;2023-02-28T12:33:02;95992.47;;;3.66;100.00
33859;BME280;20156;47.486;12.074;2023-02-28T12:35:38;95992.34;;;3.95;100.00
33859;BME280;20156;47.486;12.074;2023-02-28T12:38:14;95984.81;;;4.11;100.00
33859;BME280;20156;47.486;12.074;2023-02-28T12:40:50;95984.56;;;3.86;100.00
33859;BME280;20156;47.486;12.074;2023-02-28T12:43:17;95985.22;;;3.88;100.00
33859;BME280;20156;47.486;12.074;2023-02-28T12:45:50;95982.69;;;3.79;100.00
33859;BME280;20156;47.486;12.074;2023-02-28T12:48:25;95992.59;;;4.29;100.00
33859;BME280;20156;47.486;12.074;2023-02-28T12:50:53;95981.69;;;4.35;100.00
33859;BME280;20156;47.486;12.074;2023-02-28T12:54:14;95977.50;;;4.51;100.00
33859;BME280;20156;47.486;12.074;2023-02-28T12:58:50;95960.88;;;4.46;100.00
33859;BME280;20156;47.486;12.074;2023-02-28T13:09:34;95975.81;;;4.42;100.00
33859;BME280;20156;47.486;12.074;2023-02-28T13:11:59;95968.44;;;4.30;100.00
33859;BME280;20156;47.486;12.074;2023-02-28T13:19:26;95971.41;;;4.52;100.00
33859;BME280;20156;47.486;12.074;2023-02-28T13:21:52;95964.88;;;4.40;100.00
33859;BME280;20156;47.486;12.074;2023-02-28T13:24:44;95958.34;;;4.18;100.00
33859;BME280;20156;47.486;12.074;2023-02-28T13:29:41;95963.50;;;4.18;100.00
33859;BME280;20156;47.486;12.074;2023-02-28T13:42:48;95958.09;;;4.57;100.00
33859;BME280;20156;47.486;12.074;2023-02-28T13:45:29;95963.09;;;4.59;100.00
33859;BME280;20156;47.486;12.074;2023-02-28T13:47:59;95952.63;;;4.07;100.00
33859;BME280;20156;47.486;12.074;2023-02-28T13:56:04;95973.31;;;4.50;100.00
33859;BME280;20156;47.486;12.074;2023-02-28T13:58:55;95969.28;;;4.48;100.00
33859;BME280;20156;47.486;12.074;2023-02-28T14:04:37;95967.81;;;4.00;100.00
33859;BME280;20156;47.486;12.074;2023-02-28T14:07:06;95970.16;;;3.93;100.00
33859;BME280;20156;47.486;12.074;2023-02-28T14:09:41;95982.47;;;4.17;100.00
33859;BME280;20156;47.486;12.074;2023-02-28T14:18:25;95977.56;;;3.97;100.00
33859;BME280;20156;47.486;12.074;2023-02-28T14:20:57;95978.16;;;3.90;100.00
33859;BME280;20156;47.486;12.074;2023-02-28T14:26:54;95985.88;;;3.90;100.00
33859;BME280;20156;47.486;12.074;2023-02-28T14:32:10;95988.22;;;4.57;100.00
33859;BME280;20156;47.486;12.074;2023-02-28T14:34:44;95987.84;;;4.06;100.00
33859;BME280;20156;47.486;12.074;2023-02-28T14:37:18;95987.28;;;4.03;100.00
33859;BME280;20156;47.486;12.074;2023-02-28T14:39:45;95983.63;;;3.78;100.00
33859;BME280;20156;47.486;12.074;2023-02-28T14:42:32;95986.66;;;4.18;100.00
33859;BME280;20156;47.486;12.074;2023-02-28T14:44:58;95987.78;;;3.88;100.00
33859;BME280;20156;47.486;12.074;2023-02-28T14:47:42;95998.84;;;4.26;100.00
33859;BME280;20156;47.486;12.074;2023-02-28T14:50:19;95993.28;;;4.03;100.00
33859;BME280;20156;47.486;12.074;2023-02-28T14:52:45;95991.41;;;3.96;100.00
33859;BME280;20156;47.486;12.074;2023-02-28T14:55:15;95998.22;;;3.87;100.00
33859;BME280;20156;47.486;12.074;2023-02-28T14:57:51;96003.63;;;3.47;100.00
33859;BME280;20156;47.486;12.074;2023-02-28T15:00:30;96002.13;;;3.54;100.00
33859;BME280;20156;47.486;12.074;2023-02-28T15:02:57;95999.91;;;3.22;100.00
33859;BME280;20156;47.486;12.074;2023-02-28T15:05:32;96000.69;;;3.42;100.00
33859;BME280;20156;47.486;12.074;2023-02-28T15:08:15;96005.81;;;3.42;100.00
33859;BME280;20156;47.486;12.074;2023-02-28T15:10:54;96005.06;;;3.12;100.00